sensor_id;sensor_type;location;lat;lon;timestamp;temperature;humidity
65064;DHT22;51654;51.452;6.644;2022-12-18T00:01:38;-3278.30;73.20
65064;DHT22;51654;51.452;6.644;2022-12-18T00:04:06;-3278.30;73.10
65064;DHT22;51654;51.452;6.644;2022-12-18T00:06:34;-3278.20;73.00
65064;DHT22;51654;51.452;6.644;2022-12-18T00:09:02;-3278.10;72.80
65064;DHT22;51654;51.452;6.644;2022-12-18T00:11:29;-3278.10;72.90
65064;DHT22;51654;51.452;6.644;2022-12-18T00:13:57;-3278.00;73.10
65064;DHT22;51654;51.452;6.644;2022-12-18T00:16:25;-3278.00;73.30
65064;DHT22;51654;51.452;6.644;2022-12-18T00:18:53;-3278.00;73.40
65064;DHT22;51654;51.452;6.644;2022-12-18T00:21:20;-3278.00;73.50
65064;DHT22;51654;51.452;6.644;2022-12-18T00:23:48;-3278.10;73.30
65064;DHT22;51654;51.452;6.644;2022-12-18T00:26:16;-3278.00;73.30
65064;DHT22;51654;51.452;6.644;2022-12-18T00:28:43;-3278.00;73.30
65064;DHT22;51654;51.452;6.644;2022-12-18T00:31:11;-3277.90;73.30
65064;DHT22;51654;51.452;6.644;2022-12-18T00:33:38;-3278.00;73.70
65064;DHT22;51654;51.452;6.644;2022-12-18T00:36:16;-3278.00;74.20
65064;DHT22;51654;51.452;6.644;2022-12-18T00:38:44;-3278.10;74.00
65064;DHT22;51654;51.452;6.644;2022-12-18T00:41:11;-3278.10;73.50
65064;DHT22;51654;51.452;6.644;2022-12-18T00:43:38;-3278.10;73.20
65064;DHT22;51654;51.452;6.644;2022-12-18T00:46:06;-3278.00;73.10
65064;DHT22;51654;51.452;6.644;2022-12-18T00:48:33;-3278.00;73.20
65064;DHT22;51654;51.452;6.644;2022-12-18T00:51:00;-3278.00;73.50
65064;DHT22;51654;51.452;6.644;2022-12-18T00:53:26;-3278.00;73.40
65064;DHT22;51654;51.452;6.644;2022-12-18T00:55:55;-3278.10;73.40
65064;DHT22;51654;51.452;6.644;2022-12-18T00:58:21;-3278.10;73.60
65064;DHT22;51654;51.452;6.644;2022-12-18T01:00:48;-3278.10;73.20
65064;DHT22;51654;51.452;6.644;2022-12-18T01:03:15;-3278.10;73.50
65064;DHT22;51654;51.452;6.644;2022-12-18T01:05:43;-3278.10;73.30
65064;DHT22;51654;51.452;6.644;2022-12-18T01:08:10;-3278.00;73.30
65064;DHT22;51654;51.452;6.644;2022-12-18T01:10:39;-3278.10;73.90
65064;DHT22;51654;51.452;6.644;2022-12-18T01:13:06;-3278.20;73.60
65064;DHT22;51654;51.452;6.644;2022-12-18T01:15:33;-3278.20;73.40
65064;DHT22;51654;51.452;6.644;2022-12-18T01:18:00;-3278.30;73.80
65064;DHT22;51654;51.452;6.644;2022-12-18T01:20:26;-3278.30;73.40
65064;DHT22;51654;51.452;6.644;2022-12-18T01:22:53;-3278.30;73.00
65064;DHT22;51654;51.452;6.644;2022-12-18T01:25:20;-3278.30;72.90
65064;DHT22;51654;51.452;6.644;2022-12-18T01:27:46;-3278.20;72.80
65064;DHT22;51654;51.452;6.644;2022-12-18T01:30:13;-3278.10;72.70
65064;DHT22;51654;51.452;6.644;2022-12-18T01:32:40;-3278.10;72.60
65064;DHT22;51654;51.452;6.644;2022-12-18T01:35:07;-3278.00;72.80
65064;DHT22;51654;51.452;6.644;2022-12-18T01:37:34;-3278.00;73.20
65064;DHT22;51654;51.452;6.644;2022-12-18T01:40:00;-3277.90;73.20
65064;DHT22;51654;51.452;6.644;2022-12-18T01:42:27;-3277.90;73.20
65064;DHT22;51654;51.452;6.644;2022-12-18T01:47:29;-3277.80;73.50
65064;DHT22;51654;51.452;6.644;2022-12-18T01:49:57;-3277.80;73.50
65064;DHT22;51654;51.452;6.644;2022-12-18T01:52:24;-3277.80;73.60
65064;DHT22;51654;51.452;6.644;2022-12-18T01:54:53;-3277.80;73.50
65064;DHT22;51654;51.452;6.644;2022-12-18T01:57:21;-3277.80;73.60
65064;DHT22;51654;51.452;6.644;2022-12-18T01:59:49;-3277.80;73.50
65064;DHT22;51654;51.452;6.644;2022-12-18T02:02:18;-3277.80;73.50
65064;DHT22;51654;51.452;6.644;2022-12-18T02:04:45;-3277.80;73.60
65064;DHT22;51654;51.452;6.644;2022-12-18T02:09:46;-3277.90;73.60
65064;DHT22;51654;51.452;6.644;2022-12-18T02:12:21;-3278.00;73.80
65064;DHT22;51654;51.452;6.644;2022-12-18T02:15:00;-3278.10;73.70
65064;DHT22;51654;51.452;6.644;2022-12-18T02:28:25;-3278.00;72.50
65064;DHT22;51654;51.452;6.644;2022-12-18T02:30:57;-3278.00;72.80
65064;DHT22;51654;51.452;6.644;2022-12-18T02:33:27;-3278.00;72.90
65064;DHT22;51654;51.452;6.644;2022-12-18T02:35:55;-3278.00;72.70
65064;DHT22;51654;51.452;6.644;2022-12-18T02:38:24;-3278.00;72.50
65064;DHT22;51654;51.452;6.644;2022-12-18T02:40:53;-3278.00;72.90
65064;DHT22;51654;51.452;6.644;2022-12-18T02:43:21;-3278.00;73.70
65064;DHT22;51654;51.452;6.644;2022-12-18T02:45:50;-3278.10;73.30
65064;DHT22;51654;51.452;6.644;2022-12-18T02:48:19;-3278.20;73.30
65064;DHT22;51654;51.452;6.644;2022-12-18T02:50:58;-3278.20;72.70
65064;DHT22;51654;51.452;6.644;2022-12-18T02:53:36;-3278.10;72.50
65064;DHT22;51654;51.452;6.644;2022-12-18T02:56:42;-3278.10;72.70
65064;DHT22;51654;51.452;6.644;2022-12-18T02:59:04;-3278.10;72.80
65064;DHT22;51654;51.452;6.644;2022-12-18T03:04:41;-3278.10;73.00
65064;DHT22;51654;51.452;6.644;2022-12-18T03:07:11;-3278.20;73.20
65064;DHT22;51654;51.452;6.644;2022-12-18T03:09:43;-3278.20;72.60
65064;DHT22;51654;51.452;6.644;2022-12-18T03:12:18;-3278.20;72.90
65064;DHT22;51654;51.452;6.644;2022-12-18T03:14:56;-3278.20;72.90
65064;DHT22;51654;51.452;6.644;2022-12-18T03:17:25;-3278.10;72.40
65064;DHT22;51654;51.452;6.644;2022-12-18T03:19:53;-3278.20;72.80
65064;DHT22;51654;51.452;6.644;2022-12-18T03:22:22;-3278.20;72.50
65064;DHT22;51654;51.452;6.644;2022-12-18T03:24:52;-3278.20;72.70
65064;DHT22;51654;51.452;6.644;2022-12-18T03:27:20;-3278.20;72.90
65064;DHT22;51654;51.452;6.644;2022-12-18T03:29:53;-3278.10;72.80
65064;DHT22;51654;51.452;6.644;2022-12-18T03:32:26;-3278.10;72.70
65064;DHT22;51654;51.452;6.644;2022-12-18T03:34:53;-3278.00;72.60
65064;DHT22;51654;51.452;6.644;2022-12-18T03:37:22;-3278.00;72.80
65064;DHT22;51654;51.452;6.644;2022-12-18T03:39:50;-3278.00;72.90
65064;DHT22;51654;51.452;6.644;2022-12-18T03:42:51;-3278.00;73.20
65064;DHT22;51654;51.452;6.644;2022-12-18T03:45:15;-3278.10;73.30
65064;DHT22;51654;51.452;6.644;2022-12-18T03:50:37;-3278.10;73.10
65064;DHT22;51654;51.452;6.644;2022-12-18T03:53:29;-3278.10;73.20
65064;DHT22;51654;51.452;6.644;2022-12-18T03:55:53;-3278.20;73.10
65064;DHT22;51654;51.452;6.644;2022-12-18T03:58:23;-3278.10;73.10
65064;DHT22;51654;51.452;6.644;2022-12-18T04:01:02;-3278.20;73.30
65064;DHT22;51654;51.452;6.644;2022-12-18T04:03:31;-3278.30;73.60
65064;DHT22;51654;51.452;6.644;2022-12-18T04:05:58;-3278.30;73.20
65064;DHT22;51654;51.452;6.644;2022-12-18T04:08:27;-3278.30;72.80
65064;DHT22;51654;51.452;6.644;2022-12-18T04:11:04;-3278.30;72.90
65064;DHT22;51654;51.452;6.644;2022-12-18T04:13:34;-3278.20;72.80
65064;DHT22;51654;51.452;6.644;2022-12-18T04:16:05;-3278.30;72.70
65064;DHT22;51654;51.452;6.644;2022-12-18T04:18:32;-3278.30;72.90
65064;DHT22;51654;51.452;6.644;2022-12-18T04:21:00;-3278.40;72.90
65064;DHT22;51654;51.452;6.644;2022-12-18T04:23:28;-3278.40;72.60
65064;DHT22;51654;51.452;6.644;2022-12-18T04:25:57;-3278.50;72.70
65064;DHT22;51654;51.452;6.644;2022-12-18T04:28:53;-3278.50;72.40
65064;DHT22;51654;51.452;6.644;2022-12-18T04:31:20;-3278.60;72.20
65064;DHT22;51654;51.452;6.644;2022-12-18T04:33:47;-3278.60;72.00
65064;DHT22;51654;51.452;6.644;2022-12-18T04:36:14;-3278.60;71.90
65064;DHT22;51654;51.452;6.644;2022-12-18T04:38:42;-3278.60;72.00
65064;DHT22;51654;51.452;6.644;2022-12-18T04:41:12;-3278.70;72.30
65064;DHT22;51654;51.452;6.644;2022-12-18T04:43:40;-3278.80;72.10
65064;DHT22;51654;51.452;6.644;2022-12-18T04:46:08;-3278.80;71.90
65064;DHT22;51654;51.452;6.644;2022-12-18T04:48:35;-3278.90;72.10
65064;DHT22;51654;51.452;6.644;2022-12-18T04:51:02;-3278.80;71.30
65064;DHT22;51654;51.452;6.644;2022-12-18T04:53:28;-3278.80;71.50
65064;DHT22;51654;51.452;6.644;2022-12-18T04:56:05;-3278.70;71.40
65064;DHT22;51654;51.452;6.644;2022-12-18T04:58:33;-3278.70;71.30
65064;DHT22;51654;51.452;6.644;2022-12-18T05:01:00;-3278.70;71.50
65064;DHT22;51654;51.452;6.644;2022-12-18T05:03:28;-3278.70;71.70
65064;DHT22;51654;51.452;6.644;2022-12-18T05:05:55;-3278.70;71.70
65064;DHT22;51654;51.452;6.644;2022-12-18T05:08:22;-3278.70;71.90
65064;DHT22;51654;51.452;6.644;2022-12-18T05:10:49;-3278.70;71.80
65064;DHT22;51654;51.452;6.644;2022-12-18T05:13:15;-3278.70;71.60
65064;DHT22;51654;51.452;6.644;2022-12-18T05:15:42;-3278.70;71.50
65064;DHT22;51654;51.452;6.644;2022-12-18T05:18:09;-3278.70;71.50
65064;DHT22;51654;51.452;6.644;2022-12-18T05:20:36;-3278.70;71.40
65064;DHT22;51654;51.452;6.644;2022-12-18T05:23:03;-3278.70;71.70
65064;DHT22;51654;51.452;6.644;2022-12-18T05:25:29;-3278.80;71.90
65064;DHT22;51654;51.452;6.644;2022-12-18T05:27:56;-3278.80;71.40
65064;DHT22;51654;51.452;6.644;2022-12-18T05:30:23;-3278.70;71.10
65064;DHT22;51654;51.452;6.644;2022-12-18T05:32:50;-3278.70;71.40
65064;DHT22;51654;51.452;6.644;2022-12-18T05:35:17;-3278.70;71.00
65064;DHT22;51654;51.452;6.644;2022-12-18T05:37:43;-3278.70;71.60
65064;DHT22;51654;51.452;6.644;2022-12-18T05:40:10;-3278.70;71.50
65064;DHT22;51654;51.452;6.644;2022-12-18T05:42:37;-3278.70;71.30
65064;DHT22;51654;51.452;6.644;2022-12-18T05:45:04;-3278.70;71.60
65064;DHT22;51654;51.452;6.644;2022-12-18T05:47:31;-3278.70;71.60
65064;DHT22;51654;51.452;6.644;2022-12-18T05:50:00;-3278.70;71.30
65064;DHT22;51654;51.452;6.644;2022-12-18T05:52:27;-3278.70;71.00
65064;DHT22;51654;51.452;6.644;2022-12-18T05:54:54;-3278.60;71.30
65064;DHT22;51654;51.452;6.644;2022-12-18T05:57:21;-3278.60;71.30
65064;DHT22;51654;51.452;6.644;2022-12-18T05:59:47;-3278.50;71.40
65064;DHT22;51654;51.452;6.644;2022-12-18T06:02:14;-3278.40;71.10
65064;DHT22;51654;51.452;6.644;2022-12-18T06:04:41;-3278.30;71.00
65064;DHT22;51654;51.452;6.644;2022-12-18T06:07:08;-3278.30;71.40
65064;DHT22;51654;51.452;6.644;2022-12-18T06:09:34;-3278.30;71.90
65064;DHT22;51654;51.452;6.644;2022-12-18T06:12:01;-3278.30;71.90
65064;DHT22;51654;51.452;6.644;2022-12-18T06:14:28;-3278.30;71.60
65064;DHT22;51654;51.452;6.644;2022-12-18T06:16:54;-3278.30;71.80
65064;DHT22;51654;51.452;6.644;2022-12-18T06:19:21;-3278.30;71.60
65064;DHT22;51654;51.452;6.644;2022-12-18T06:21:49;-3278.40;72.30
65064;DHT22;51654;51.452;6.644;2022-12-18T06:24:16;-3278.40;71.90
65064;DHT22;51654;51.452;6.644;2022-12-18T06:26:43;-3278.30;71.90
65064;DHT22;51654;51.452;6.644;2022-12-18T06:29:10;-3278.30;71.60
65064;DHT22;51654;51.452;6.644;2022-12-18T06:31:36;-3278.30;71.90
65064;DHT22;51654;51.452;6.644;2022-12-18T06:34:04;-3278.20;71.90
65064;DHT22;51654;51.452;6.644;2022-12-18T06:36:31;-3278.20;72.20
65064;DHT22;51654;51.452;6.644;2022-12-18T06:38:58;-3278.20;71.80
65064;DHT22;51654;51.452;6.644;2022-12-18T06:41:25;-3278.10;71.70
65064;DHT22;51654;51.452;6.644;2022-12-18T06:43:52;-3278.10;72.00
65064;DHT22;51654;51.452;6.644;2022-12-18T06:46:25;-3278.10;72.30
65064;DHT22;51654;51.452;6.644;2022-12-18T06:48:51;-3278.10;72.40
65064;DHT22;51654;51.452;6.644;2022-12-18T06:51:22;-3278.00;72.30
65064;DHT22;51654;51.452;6.644;2022-12-18T06:53:49;-3278.00;72.20
65064;DHT22;51654;51.452;6.644;2022-12-18T06:56:16;-3277.90;72.20
65064;DHT22;51654;51.452;6.644;2022-12-18T06:58:43;-3277.90;72.20
65064;DHT22;51654;51.452;6.644;2022-12-18T07:01:10;-3278.10;73.00
65064;DHT22;51654;51.452;6.644;2022-12-18T07:03:38;-3278.20;73.20
65064;DHT22;51654;51.452;6.644;2022-12-18T07:06:12;-3278.30;72.00
65064;DHT22;51654;51.452;6.644;2022-12-18T07:08:39;-3278.30;71.80
65064;DHT22;51654;51.452;6.644;2022-12-18T07:11:06;-3278.30;71.60
65064;DHT22;51654;51.452;6.644;2022-12-18T07:13:32;-3278.30;71.70
65064;DHT22;51654;51.452;6.644;2022-12-18T07:16:06;-3278.40;71.40
65064;DHT22;51654;51.452;6.644;2022-12-18T07:18:41;-3278.40;71.40
65064;DHT22;51654;51.452;6.644;2022-12-18T07:21:09;-3278.50;71.40
65064;DHT22;51654;51.452;6.644;2022-12-18T07:23:36;-3278.50;71.00
65064;DHT22;51654;51.452;6.644;2022-12-18T07:26:04;-3278.50;70.70
65064;DHT22;51654;51.452;6.644;2022-12-18T07:28:32;-3278.50;70.60
65064;DHT22;51654;51.452;6.644;2022-12-18T07:31:02;-3278.50;70.70
65064;DHT22;51654;51.452;6.644;2022-12-18T07:33:29;-3278.50;70.40
65064;DHT22;51654;51.452;6.644;2022-12-18T07:35:56;-3278.50;70.30
65064;DHT22;51654;51.452;6.644;2022-12-18T07:38:25;-3278.50;70.60
65064;DHT22;51654;51.452;6.644;2022-12-18T07:40:51;-3278.60;70.60
65064;DHT22;51654;51.452;6.644;2022-12-18T07:43:18;-3278.60;70.30
65064;DHT22;51654;51.452;6.644;2022-12-18T07:45:45;-3278.50;70.10
65064;DHT22;51654;51.452;6.644;2022-12-18T07:48:12;-3278.70;70.90
65064;DHT22;51654;51.452;6.644;2022-12-18T07:50:38;-3278.70;70.60
65064;DHT22;51654;51.452;6.644;2022-12-18T07:53:06;-3278.70;70.40
65064;DHT22;51654;51.452;6.644;2022-12-18T07:55:32;-3278.80;70.20
65064;DHT22;51654;51.452;6.644;2022-12-18T07:58:19;-3278.70;69.80
65064;DHT22;51654;51.452;6.644;2022-12-18T08:00:46;-3278.70;69.80
65064;DHT22;51654;51.452;6.644;2022-12-18T08:03:13;-3278.80;70.10
65064;DHT22;51654;51.452;6.644;2022-12-18T08:05:40;-3279.00;70.30
65064;DHT22;51654;51.452;6.644;2022-12-18T08:08:07;-3279.00;69.40
65064;DHT22;51654;51.452;6.644;2022-12-18T08:10:33;-3279.10;70.10
65064;DHT22;51654;51.452;6.644;2022-12-18T08:13:00;-3279.30;69.70
65064;DHT22;51654;51.452;6.644;2022-12-18T08:15:30;-3279.30;68.70
65064;DHT22;51654;51.452;6.644;2022-12-18T08:17:57;-3279.40;68.60
65064;DHT22;51654;51.452;6.644;2022-12-18T08:20:24;-3279.30;67.90
65064;DHT22;51654;51.452;6.644;2022-12-18T08:22:51;-3279.30;67.70
65064;DHT22;51654;51.452;6.644;2022-12-18T08:25:18;-3279.50;67.80
65064;DHT22;51654;51.452;6.644;2022-12-18T08:27:44;-3.00;67.20
65064;DHT22;51654;51.452;6.644;2022-12-18T08:30:11;-2.60;66.40
65064;DHT22;51654;51.452;6.644;2022-12-18T08:32:38;-2.20;65.70
65064;DHT22;51654;51.452;6.644;2022-12-18T08:35:05;-1.80;64.20
65064;DHT22;51654;51.452;6.644;2022-12-18T08:37:32;-1.60;63.40
65064;DHT22;51654;51.452;6.644;2022-12-18T08:39:59;-1.40;61.90
65064;DHT22;51654;51.452;6.644;2022-12-18T08:42:25;-1.30;61.50
65064;DHT22;51654;51.452;6.644;2022-12-18T08:45:11;-1.20;60.90
65064;DHT22;51654;51.452;6.644;2022-12-18T08:47:37;-1.00;60.50
65064;DHT22;51654;51.452;6.644;2022-12-18T08:50:04;-0.90;59.50
65064;DHT22;51654;51.452;6.644;2022-12-18T08:52:32;-0.80;59.00
65064;DHT22;51654;51.452;6.644;2022-12-18T08:54:59;-0.70;58.50
65064;DHT22;51654;51.452;6.644;2022-12-18T08:57:26;-0.70;58.60
65064;DHT22;51654;51.452;6.644;2022-12-18T08:59:52;-0.70;58.50
65064;DHT22;51654;51.452;6.644;2022-12-18T09:02:19;-0.60;58.00
65064;DHT22;51654;51.452;6.644;2022-12-18T09:04:47;-0.60;58.30
65064;DHT22;51654;51.452;6.644;2022-12-18T09:07:20;-0.40;58.30
65064;DHT22;51654;51.452;6.644;2022-12-18T09:09:47;-0.30;57.90
65064;DHT22;51654;51.452;6.644;2022-12-18T09:12:14;-0.30;57.70
65064;DHT22;51654;51.452;6.644;2022-12-18T09:14:41;-0.30;57.00
65064;DHT22;51654;51.452;6.644;2022-12-18T09:17:07;-0.50;57.10
65064;DHT22;51654;51.452;6.644;2022-12-18T09:19:34;-0.50;57.10
65064;DHT22;51654;51.452;6.644;2022-12-18T09:22:01;-0.50;57.20
65064;DHT22;51654;51.452;6.644;2022-12-18T09:24:29;-0.40;57.10
65064;DHT22;51654;51.452;6.644;2022-12-18T09:26:55;-0.30;56.70
65064;DHT22;51654;51.452;6.644;2022-12-18T09:29:23;-0.10;56.20
65064;DHT22;51654;51.452;6.644;2022-12-18T09:31:50;0.00;55.20
65064;DHT22;51654;51.452;6.644;2022-12-18T09:34:17;-0.10;55.20
65064;DHT22;51654;51.452;6.644;2022-12-18T09:36:44;-0.20;55.00
65064;DHT22;51654;51.452;6.644;2022-12-18T09:39:10;-0.30;55.10
65064;DHT22;51654;51.452;6.644;2022-12-18T09:41:47;-0.30;55.30
65064;DHT22;51654;51.452;6.644;2022-12-18T09:44:38;-0.20;55.20
65064;DHT22;51654;51.452;6.644;2022-12-18T09:49:48;-0.40;54.40
65064;DHT22;51654;51.452;6.644;2022-12-18T09:52:21;-0.70;55.10
65064;DHT22;51654;51.452;6.644;2022-12-18T09:54:52;-0.80;55.40
65064;DHT22;51654;51.452;6.644;2022-12-18T09:57:20;-1.00;55.70
65064;DHT22;51654;51.452;6.644;2022-12-18T09:59:55;-1.00;56.30
65064;DHT22;51654;51.452;6.644;2022-12-18T10:02:23;-1.00;55.70
65064;DHT22;51654;51.452;6.644;2022-12-18T10:05:02;-1.00;55.90
65064;DHT22;51654;51.452;6.644;2022-12-18T10:07:36;-1.10;55.90
65064;DHT22;51654;51.452;6.644;2022-12-18T10:15:12;-1.00;55.80
65064;DHT22;51654;51.452;6.644;2022-12-18T10:25:16;-1.00;56.60
65064;DHT22;51654;51.452;6.644;2022-12-18T10:27:43;-0.80;56.60
65064;DHT22;51654;51.452;6.644;2022-12-18T10:30:12;-0.80;56.00
65064;DHT22;51654;51.452;6.644;2022-12-18T10:32:39;-0.60;56.10
65064;DHT22;51654;51.452;6.644;2022-12-18T10:35:14;-0.60;55.10
65064;DHT22;51654;51.452;6.644;2022-12-18T10:40:30;-0.70;55.30
65064;DHT22;51654;51.452;6.644;2022-12-18T10:46:01;-0.60;54.90
65064;DHT22;51654;51.452;6.644;2022-12-18T10:48:28;-0.50;54.80
65064;DHT22;51654;51.452;6.644;2022-12-18T10:50:56;-0.30;54.80
65064;DHT22;51654;51.452;6.644;2022-12-18T10:53:40;-0.30;54.30
65064;DHT22;51654;51.452;6.644;2022-12-18T10:56:08;-0.20;54.40
65064;DHT22;51654;51.452;6.644;2022-12-18T10:58:35;-0.20;54.60
65064;DHT22;51654;51.452;6.644;2022-12-18T11:03:34;-0.10;54.90
65064;DHT22;51654;51.452;6.644;2022-12-18T11:06:08;-0.10;54.10
65064;DHT22;51654;51.452;6.644;2022-12-18T11:08:35;-0.10;53.80
65064;DHT22;51654;51.452;6.644;2022-12-18T11:11:02;-0.20;53.90
65064;DHT22;51654;51.452;6.644;2022-12-18T11:13:30;-0.30;54.30
65064;DHT22;51654;51.452;6.644;2022-12-18T11:15:58;-0.40;54.40
65064;DHT22;51654;51.452;6.644;2022-12-18T11:21:13;-0.30;55.20
65064;DHT22;51654;51.452;6.644;2022-12-18T11:23:46;-0.20;55.30
65064;DHT22;51654;51.452;6.644;2022-12-18T11:26:13;-0.20;54.70
65064;DHT22;51654;51.452;6.644;2022-12-18T11:28:44;-0.30;55.30
65064;DHT22;51654;51.452;6.644;2022-12-18T11:31:25;-0.30;55.00
65064;DHT22;51654;51.452;6.644;2022-12-18T11:33:56;-0.30;55.20
65064;DHT22;51654;51.452;6.644;2022-12-18T11:36:45;-0.30;55.60
65064;DHT22;51654;51.452;6.644;2022-12-18T11:39:15;-0.30;55.20
65064;DHT22;51654;51.452;6.644;2022-12-18T11:41:49;-0.30;55.20
65064;DHT22;51654;51.452;6.644;2022-12-18T11:44:43;-0.40;55.20
65064;DHT22;51654;51.452;6.644;2022-12-18T11:47:14;-0.30;55.80
65064;DHT22;51654;51.452;6.644;2022-12-18T11:49:43;-0.30;55.40
65064;DHT22;51654;51.452;6.644;2022-12-18T11:52:18;-0.30;55.50
65064;DHT22;51654;51.452;6.644;2022-12-18T11:54:46;-0.30;56.00
65064;DHT22;51654;51.452;6.644;2022-12-18T12:18:12;-0.50;55.10
65064;DHT22;51654;51.452;6.644;2022-12-18T12:26:00;-0.50;55.60
65064;DHT22;51654;51.452;6.644;2022-12-18T12:33:40;-0.40;56.00
65064;DHT22;51654;51.452;6.644;2022-12-18T12:38:41;-0.30;55.60
65064;DHT22;51654;51.452;6.644;2022-12-18T12:41:18;-0.30;55.20
65064;DHT22;51654;51.452;6.644;2022-12-18T12:44:08;-0.40;55.30
65064;DHT22;51654;51.452;6.644;2022-12-18T12:46:37;-0.40;55.80
65064;DHT22;51654;51.452;6.644;2022-12-18T12:49:09;-0.40;55.70
65064;DHT22;51654;51.452;6.644;2022-12-18T12:51:39;-0.50;55.50
65064;DHT22;51654;51.452;6.644;2022-12-18T12:54:15;-0.40;55.80
65064;DHT22;51654;51.452;6.644;2022-12-18T12:56:51;-0.40;55.30
65064;DHT22;51654;51.452;6.644;2022-12-18T12:59:22;-0.50;55.80
65064;DHT22;51654;51.452;6.644;2022-12-18T13:07:08;-0.50;55.80
65064;DHT22;51654;51.452;6.644;2022-12-18T13:10:11;-0.50;55.80
65064;DHT22;51654;51.452;6.644;2022-12-18T13:12:26;-0.50;55.90
65064;DHT22;51654;51.452;6.644;2022-12-18T13:15:22;-0.50;55.30
65064;DHT22;51654;51.452;6.644;2022-12-18T13:17:51;-0.60;55.30
65064;DHT22;51654;51.452;6.644;2022-12-18T13:20:42;-0.60;55.30
65064;DHT22;51654;51.452;6.644;2022-12-18T13:25:49;-0.70;55.60
65064;DHT22;51654;51.452;6.644;2022-12-18T13:28:18;-0.70;55.80
65064;DHT22;51654;51.452;6.644;2022-12-18T13:30:48;-0.80;56.00
65064;DHT22;51654;51.452;6.644;2022-12-18T13:43:23;-0.90;55.70
65064;DHT22;51654;51.452;6.644;2022-12-18T13:46:01;-1.00;55.70
65064;DHT22;51654;51.452;6.644;2022-12-18T13:48:30;-1.00;56.20
65064;DHT22;51654;51.452;6.644;2022-12-18T13:50:59;-1.00;55.70
65064;DHT22;51654;51.452;6.644;2022-12-18T13:53:30;-1.00;55.60
65064;DHT22;51654;51.452;6.644;2022-12-18T13:55:59;-1.00;56.00
65064;DHT22;51654;51.452;6.644;2022-12-18T13:58:26;-1.10;55.80
65064;DHT22;51654;51.452;6.644;2022-12-18T14:00:52;-1.00;55.90
65064;DHT22;51654;51.452;6.644;2022-12-18T14:03:24;-1.00;56.10
65064;DHT22;51654;51.452;6.644;2022-12-18T14:05:53;-1.00;56.10
65064;DHT22;51654;51.452;6.644;2022-12-18T14:08:21;-1.00;56.30
65064;DHT22;51654;51.452;6.644;2022-12-18T14:10:48;-0.90;56.50
65064;DHT22;51654;51.452;6.644;2022-12-18T14:13:19;-0.90;56.20
65064;DHT22;51654;51.452;6.644;2022-12-18T14:15:46;-1.00;55.90
65064;DHT22;51654;51.452;6.644;2022-12-18T14:18:29;-1.00;56.10
65064;DHT22;51654;51.452;6.644;2022-12-18T14:20:59;-1.00;56.40
65064;DHT22;51654;51.452;6.644;2022-12-18T14:25:52;-1.00;56.40
65064;DHT22;51654;51.452;6.644;2022-12-18T14:28:19;-0.90;56.60
65064;DHT22;51654;51.452;6.644;2022-12-18T14:30:48;-0.90;56.50
65064;DHT22;51654;51.452;6.644;2022-12-18T14:33:25;-0.80;56.70
65064;DHT22;51654;51.452;6.644;2022-12-18T14:36:00;-0.80;56.40
65064;DHT22;51654;51.452;6.644;2022-12-18T14:38:30;-0.80;56.60
65064;DHT22;51654;51.452;6.644;2022-12-18T14:43:27;-0.90;56.00
65064;DHT22;51654;51.452;6.644;2022-12-18T14:45:55;-1.00;56.50
65064;DHT22;51654;51.452;6.644;2022-12-18T14:48:38;-1.00;56.60
65064;DHT22;51654;51.452;6.644;2022-12-18T14:51:06;-1.10;56.50
65064;DHT22;51654;51.452;6.644;2022-12-18T14:53:41;-1.10;56.90
65064;DHT22;51654;51.452;6.644;2022-12-18T14:58:46;-1.10;57.70
65064;DHT22;51654;51.452;6.644;2022-12-18T15:01:21;-1.10;58.00
65064;DHT22;51654;51.452;6.644;2022-12-18T15:03:50;-1.00;57.70
65064;DHT22;51654;51.452;6.644;2022-12-18T15:06:18;-1.10;57.40
65064;DHT22;51654;51.452;6.644;2022-12-18T15:08:49;-1.10;57.60
65064;DHT22;51654;51.452;6.644;2022-12-18T15:13:57;-1.30;57.60
65064;DHT22;51654;51.452;6.644;2022-12-18T15:16:24;-1.30;57.60
65064;DHT22;51654;51.452;6.644;2022-12-18T15:18:51;-1.30;57.50
65064;DHT22;51654;51.452;6.644;2022-12-18T15:21:18;-1.30;57.40
65064;DHT22;51654;51.452;6.644;2022-12-18T15:23:46;-1.40;57.60
65064;DHT22;51654;51.452;6.644;2022-12-18T15:26:15;-1.40;58.00
65064;DHT22;51654;51.452;6.644;2022-12-18T15:28:57;-1.40;58.10
65064;DHT22;51654;51.452;6.644;2022-12-18T15:31:30;-1.40;57.90
65064;DHT22;51654;51.452;6.644;2022-12-18T15:36:25;-1.50;57.80
65064;DHT22;51654;51.452;6.644;2022-12-18T15:38:53;-1.50;58.20
65064;DHT22;51654;51.452;6.644;2022-12-18T15:41:27;-1.50;58.30
65064;DHT22;51654;51.452;6.644;2022-12-18T15:43:54;-1.60;58.30
65064;DHT22;51654;51.452;6.644;2022-12-18T15:46:22;-1.60;58.20
65064;DHT22;51654;51.452;6.644;2022-12-18T15:48:50;-1.60;58.40
65064;DHT22;51654;51.452;6.644;2022-12-18T15:51:24;-1.60;58.90
65064;DHT22;51654;51.452;6.644;2022-12-18T15:53:53;-1.60;58.70
65064;DHT22;51654;51.452;6.644;2022-12-18T15:56:21;-1.70;59.20
65064;DHT22;51654;51.452;6.644;2022-12-18T15:59:13;-1.70;58.80
65064;DHT22;51654;51.452;6.644;2022-12-18T16:01:40;-1.60;59.20
65064;DHT22;51654;51.452;6.644;2022-12-18T16:04:12;-1.60;59.20
65064;DHT22;51654;51.452;6.644;2022-12-18T16:06:39;-1.60;59.10
65064;DHT22;51654;51.452;6.644;2022-12-18T16:09:26;-1.70;59.00
65064;DHT22;51654;51.452;6.644;2022-12-18T16:11:53;-1.70;59.30
65064;DHT22;51654;51.452;6.644;2022-12-18T16:14:21;-1.80;59.30
65064;DHT22;51654;51.452;6.644;2022-12-18T16:16:50;-1.80;59.30
65064;DHT22;51654;51.452;6.644;2022-12-18T16:19:17;-1.80;59.80
65064;DHT22;51654;51.452;6.644;2022-12-18T16:21:45;-1.80;59.80
65064;DHT22;51654;51.452;6.644;2022-12-18T16:24:16;-1.80;60.00
65064;DHT22;51654;51.452;6.644;2022-12-18T16:26:43;-1.80;59.80
65064;DHT22;51654;51.452;6.644;2022-12-18T16:29:10;-1.80;59.90
65064;DHT22;51654;51.452;6.644;2022-12-18T16:31:37;-1.90;60.20
65064;DHT22;51654;51.452;6.644;2022-12-18T16:34:11;-1.90;60.20
65064;DHT22;51654;51.452;6.644;2022-12-18T16:36:38;-2.00;60.40
65064;DHT22;51654;51.452;6.644;2022-12-18T16:39:04;-2.00;60.60
65064;DHT22;51654;51.452;6.644;2022-12-18T16:41:31;-2.10;61.00
65064;DHT22;51654;51.452;6.644;2022-12-18T16:44:01;-2.10;61.30
65064;DHT22;51654;51.452;6.644;2022-12-18T16:46:28;-2.10;61.40
65064;DHT22;51654;51.452;6.644;2022-12-18T16:48:58;-2.10;61.50
65064;DHT22;51654;51.452;6.644;2022-12-18T16:51:26;-2.10;61.70
65064;DHT22;51654;51.452;6.644;2022-12-18T16:53:53;-2.00;61.80
65064;DHT22;51654;51.452;6.644;2022-12-18T16:56:20;-2.00;61.90
65064;DHT22;51654;51.452;6.644;2022-12-18T16:58:51;-2.00;62.00
65064;DHT22;51654;51.452;6.644;2022-12-18T17:01:18;-2.00;62.10
65064;DHT22;51654;51.452;6.644;2022-12-18T17:03:58;-2.00;62.20
65064;DHT22;51654;51.452;6.644;2022-12-18T17:06:26;-2.00;62.20
65064;DHT22;51654;51.452;6.644;2022-12-18T17:08:54;-2.10;62.50
65064;DHT22;51654;51.452;6.644;2022-12-18T17:11:21;-2.10;62.70
65064;DHT22;51654;51.452;6.644;2022-12-18T17:13:50;-2.20;62.80
65064;DHT22;51654;51.452;6.644;2022-12-18T17:16:17;-2.20;63.20